TimeEDT,TemperatureF,Dew PointF,Humidity,Sea Level PressureIn,VisibilityMPH,Wind Direction,Wind SpeedMPH,Gust SpeedMPH,PrecipitationIn,Events,Conditions,WindDirDegrees,DateUTC
12:56 AM,70.0,69.1,97,30.06,10.0,SSW,4.6,-,N/A,,Clear,200,2013-05-22 04:56:00
1:56 AM,70.0,69.1,97,30.05,10.0,SSW,4.6,-,N/A,,Clear,210,2013-05-22 05:56:00
2:56 AM,70.0,69.1,97,30.05,8.0,South,3.5,-,N/A,,Mostly Cloudy,190,2013-05-22 06:56:00
3:56 AM,70.0,69.1,97,30.05,6.0,SSW,3.5,-,N/A,,Mostly Cloudy,200,2013-05-22 07:56:00
4:56 AM,70.0,69.1,97,30.04,8.0,South,4.6,-,N/A,,Overcast,180,2013-05-22 08:56:00
5:56 AM,70.0,68.0,93,30.04,10.0,South,3.5,-,N/A,,Overcast,190,2013-05-22 09:56:00
6:56 AM,69.1,66.9,93,30.04,10.0,South,3.5,-,N/A,,Mostly Cloudy,190,2013-05-22 10:56:00
7:56 AM,73.0,66.9,81,30.06,10.0,SSW,4.6,-,N/A,,Mostly Cloudy,200,2013-05-22 11:56:00
8:56 AM,75.9,70.0,82,30.07,10.0,SSE,9.2,-,N/A,,Mostly Cloudy,160,2013-05-22 12:56:00
9:56 AM,79.0,70.0,74,30.07,10.0,South,11.5,-,N/A,,Mostly Cloudy,170,2013-05-22 13:56:00
10:16 AM,78.8,69.8,74,30.06,10.0,South,8.1,-,N/A,,Mostly Cloudy,180,2013-05-22 14:16:00
10:43 AM,80.6,69.8,70,30.07,10.0,South,12.7,19.6,N/A,,Mostly Cloudy,170,2013-05-22 14:43:00
10:56 AM,79.0,69.1,72,30.08,10.0,South,10.4,-,N/A,,Mostly Cloudy,190,2013-05-22 14:56:00
11:03 AM,80.6,69.8,70,30.07,10.0,South,9.2,-,N/A,,Mostly Cloudy,190,2013-05-22 15:03:00
11:56 AM,81.0,66.0,60,30.06,10.0,South,12.7,18.4,N/A,,Mostly Cloudy,170,2013-05-22 15:56:00
12:56 PM,82.0,66.0,58,30.06,7.0,South,13.8,21.9,N/A,,Partly Cloudy,190,2013-05-22 16:56:00
1:56 PM,82.0,66.0,58,30.04,8.0,SSW,12.7,21.9,N/A,,Partly Cloudy,200,2013-05-22 17:56:00
2:56 PM,82.0,66.9,60,30.03,10.0,South,12.7,20.7,N/A,,Clear,180,2013-05-22 18:56:00
3:56 PM,80.1,66.9,64,30.03,10.0,South,11.5,21.9,N/A,,Scattered Clouds,180,2013-05-22 19:56:00
4:56 PM,79.0,68.0,69,30.01,9.0,South,15.0,26.5,N/A,,Scattered Clouds,180,2013-05-22 20:56:00
5:56 PM,78.1,66.0,66,30.00,10.0,South,12.7,24.2,N/A,,Clear,180,2013-05-22 21:56:00
6:56 PM,77.0,66.9,71,30.00,10.0,South,11.5,24.2,N/A,,Partly Cloudy,180,2013-05-22 22:56:00
7:56 PM,73.9,68.0,82,30.00,10.0,South,10.4,-,N/A,,Partly Cloudy,170,2013-05-22 23:56:00
8:56 PM,73.0,69.1,87,30.01,10.0,South,10.4,-,N/A,,Clear,180,2013-05-23 00:56:00
9:56 PM,73.0,70.0,90,30.03,10.0,South,6.9,-,N/A,,Clear,190,2013-05-23 01:56:00
10:56 PM,72.0,70.0,93,30.03,10.0,South,6.9,-,N/A,,Clear,180,2013-05-23 02:56:00
11:56 PM,72.0,70.0,93,30.02,10.0,South,5.8,-,N/A,,Clear,180,2013-05-23 03:56:00